createdAt,value
2023-04-19T00:00:12.778Z,99.90
2023-04-19T00:02:42.888Z,99.90
2023-04-19T00:05:12.070Z,99.90
2023-04-19T00:07:39.190Z,99.90
2023-04-19T00:10:07.560Z,99.90
2023-04-19T00:12:34.472Z,99.90
2023-04-19T00:15:01.392Z,99.90
2023-04-19T00:17:29.111Z,99.90
2023-04-19T00:19:56.826Z,99.90
2023-04-19T00:22:23.798Z,99.90
2023-04-19T00:24:50.902Z,99.90
2023-04-19T00:27:17.815Z,99.90
2023-04-19T00:29:44.781Z,99.90
2023-04-19T00:32:11.774Z,99.90
2023-04-19T00:34:38.757Z,99.90
2023-04-19T00:37:05.677Z,99.90
2023-04-19T00:39:32.766Z,99.90
2023-04-19T00:41:59.741Z,99.90
2023-04-19T00:44:26.765Z,99.90
2023-04-19T00:46:54.319Z,99.90
2023-04-19T00:49:24.173Z,99.90
2023-04-19T00:51:51.847Z,99.90
2023-04-19T00:54:20.224Z,99.90
2023-04-19T00:56:47.599Z,99.90
2023-04-19T00:59:16.280Z,99.90
2023-04-19T01:01:43.216Z,99.90
2023-04-19T01:04:10.486Z,99.90
2023-04-19T01:06:41.132Z,99.90
2023-04-19T01:09:08.574Z,99.90
2023-04-19T01:11:35.637Z,99.90
2023-04-19T01:14:02.552Z,99.90
2023-04-19T01:16:29.438Z,99.90
2023-04-19T01:18:56.995Z,99.90
2023-04-19T01:21:23.883Z,99.90
2023-04-19T01:23:50.810Z,99.90
2023-04-19T01:26:19.395Z,99.90
2023-04-19T01:28:46.286Z,99.90
2023-04-19T01:31:13.274Z,99.90
2023-04-19T01:33:40.128Z,99.90
2023-04-19T01:36:07.854Z,99.90
2023-04-19T01:38:35.265Z,99.90
2023-04-19T01:41:02.178Z,99.90
2023-04-19T01:43:28.996Z,99.90
2023-04-19T01:45:55.819Z,99.90
2023-04-19T01:48:22.782Z,99.90
2023-04-19T01:50:49.616Z,99.90
2023-04-19T01:53:16.465Z,99.90
2023-04-19T01:55:43.744Z,99.90
2023-04-19T01:58:10.568Z,99.90
2023-04-19T02:00:37.446Z,99.90
2023-04-19T02:03:06.331Z,99.90
2023-04-19T02:05:33.208Z,99.90
2023-04-19T02:08:01.489Z,99.90
2023-04-19T02:10:28.430Z,99.90
2023-04-19T02:12:55.357Z,99.90
2023-04-19T02:15:22.389Z,99.90
2023-04-19T02:17:49.515Z,99.90
2023-04-19T02:20:16.501Z,99.90
2023-04-19T02:22:44.018Z,99.90
2023-04-19T02:25:10.959Z,99.90
2023-04-19T02:27:37.844Z,99.90
2023-04-19T02:30:05.513Z,99.90
2023-04-19T02:32:32.633Z,99.90
2023-04-19T02:34:59.533Z,99.90
2023-04-19T02:37:26.415Z,99.90
2023-04-19T02:39:53.294Z,99.90
2023-04-19T02:42:20.262Z,99.90
2023-04-19T02:44:47.087Z,99.90
2023-04-19T02:47:14.036Z,99.90
2023-04-19T02:49:41.581Z,99.90
2023-04-19T02:52:09.005Z,99.90
2023-04-19T02:54:35.929Z,99.90
2023-04-19T02:57:02.809Z,99.90
2023-04-19T02:59:29.608Z,99.90
2023-04-19T03:01:56.640Z,99.90
2023-04-19T03:04:23.962Z,99.90
2023-04-19T03:06:53.399Z,99.90
2023-04-19T03:09:20.372Z,99.90
2023-04-19T03:11:47.396Z,99.90
2023-04-19T03:14:14.672Z,99.90
2023-04-19T03:16:41.786Z,99.90
2023-04-19T03:19:08.652Z,99.90
2023-04-19T03:21:35.557Z,99.90
2023-04-19T03:24:02.758Z,99.90
2023-04-19T03:26:29.568Z,99.90
2023-04-19T03:28:56.447Z,99.90
2023-04-19T03:31:23.456Z,99.90
2023-04-19T03:33:50.894Z,99.90
2023-04-19T03:36:17.805Z,99.90
2023-04-19T03:38:44.735Z,99.90
2023-04-19T03:41:21.286Z,99.90
2023-04-19T03:43:48.237Z,99.90
2023-04-19T03:46:15.436Z,99.90
2023-04-19T03:48:42.420Z,99.90
2023-04-19T03:51:09.601Z,99.90
2023-04-19T03:53:36.858Z,99.90
2023-04-19T03:56:04.006Z,99.90
2023-04-19T03:58:30.849Z,99.90
2023-04-19T04:00:59.623Z,99.90
2023-04-19T04:03:26.775Z,99.90
2023-04-19T04:05:53.802Z,99.90
2023-04-19T04:08:20.752Z,99.90
2023-04-19T04:10:47.605Z,99.90
2023-04-19T04:13:14.448Z,99.90
2023-04-19T04:15:41.324Z,99.90
2023-04-19T04:18:09.244Z,99.90
2023-04-19T04:20:36.386Z,99.90
2023-04-19T04:23:03.321Z,99.90
2023-04-19T04:25:33.043Z,99.90
2023-04-19T04:28:00.219Z,99.90
2023-04-19T04:30:28.791Z,99.90
2023-04-19T04:32:58.029Z,99.90
2023-04-19T04:35:26.189Z,99.90
2023-04-19T04:37:55.747Z,99.90
2023-04-19T04:40:23.162Z,99.90
2023-04-19T04:42:52.870Z,99.90
2023-04-19T04:45:19.941Z,99.90
2023-04-19T04:47:47.333Z,99.90
2023-04-19T04:50:14.381Z,99.90
2023-04-19T04:52:41.504Z,99.90
2023-04-19T04:55:09.473Z,99.90
2023-04-19T04:57:36.361Z,99.90
2023-04-19T05:00:06.452Z,99.90
2023-04-19T05:02:33.452Z,99.90
2023-04-19T05:05:00.552Z,99.90
2023-04-19T05:07:27.409Z,99.90
2023-04-19T05:09:54.309Z,99.90
2023-04-19T05:12:21.151Z,99.90
2023-04-19T05:14:48.011Z,99.90
2023-04-19T05:17:15.028Z,99.90
2023-04-19T05:19:44.899Z,99.90
2023-04-19T05:22:11.887Z,99.90
2023-04-19T05:24:40.095Z,99.90
2023-04-19T05:27:09.721Z,99.90
2023-04-19T05:29:36.808Z,99.90
2023-04-19T05:32:03.761Z,99.90
2023-04-19T05:34:30.703Z,99.90
2023-04-19T05:36:57.568Z,99.90
2023-04-19T05:39:24.451Z,99.90
2023-04-19T05:41:51.368Z,99.90
2023-04-19T05:44:18.286Z,99.90
2023-04-19T05:46:45.231Z,99.90
2023-04-19T05:49:12.194Z,99.90
2023-04-19T05:51:39.099Z,99.90
2023-04-19T05:54:06.204Z,99.90
2023-04-19T05:56:33.057Z,99.90
2023-04-19T05:59:01.060Z,99.90
2023-04-19T06:01:28.032Z,99.90
2023-04-19T06:03:55.036Z,99.90
2023-04-19T06:06:23.749Z,99.90
2023-04-19T06:08:53.332Z,99.90
2023-04-19T06:11:28.741Z,99.90
2023-04-19T06:14:01.988Z,99.90
2023-04-19T06:16:28.999Z,99.90
2023-04-19T06:18:56.643Z,99.90
2023-04-19T06:21:23.645Z,99.90
2023-04-19T06:23:50.621Z,99.90
2023-04-19T06:26:17.482Z,99.90
2023-04-19T06:28:44.365Z,99.90
2023-04-19T06:31:12.269Z,99.90
2023-04-19T06:33:39.276Z,99.90
2023-04-19T06:36:06.647Z,99.90
2023-04-19T06:38:33.559Z,99.90
2023-04-19T06:41:00.519Z,99.90
2023-04-19T06:43:27.515Z,99.90
2023-04-19T06:46:07.349Z,99.90
2023-04-19T06:48:35.508Z,99.90
2023-04-19T06:51:02.550Z,99.90
2023-04-19T06:53:29.495Z,99.70
2023-04-19T06:56:03.056Z,97.30
2023-04-19T06:58:32.803Z,96.90
2023-04-19T07:01:03.255Z,97.70
2023-04-19T07:03:30.277Z,95.00
2023-04-19T07:05:57.374Z,95.20
2023-04-19T07:08:32.222Z,94.70
2023-04-19T07:11:06.004Z,94.60
2023-04-19T07:13:32.950Z,92.30
2023-04-19T07:16:00.027Z,92.80
2023-04-19T07:18:27.302Z,93.30
2023-04-19T07:20:54.185Z,93.30
2023-04-19T07:23:21.089Z,91.70
2023-04-19T07:25:47.878Z,90.60
2023-04-19T07:28:16.026Z,87.80
2023-04-19T07:30:46.009Z,84.00
2023-04-19T07:33:13.142Z,86.00
2023-04-19T07:35:40.424Z,81.20
2023-04-19T07:38:07.388Z,81.30
2023-04-19T07:40:34.274Z,77.60
2023-04-19T07:43:01.117Z,80.00
2023-04-19T07:45:30.052Z,80.50
2023-04-19T07:47:56.934Z,79.50
2023-04-19T07:50:26.724Z,71.60
2023-04-19T07:52:53.865Z,79.00
2023-04-19T07:55:21.205Z,80.70
2023-04-19T07:57:49.100Z,83.00
2023-04-19T08:00:18.123Z,86.00
2023-04-19T08:02:46.256Z,82.10
2023-04-19T08:05:17.929Z,85.10
2023-04-19T08:07:45.907Z,78.00
2023-04-19T08:10:13.137Z,76.00
2023-04-19T08:12:50.406Z,80.00
2023-04-19T08:16:04.968Z,77.30
2023-04-19T08:18:11.170Z,74.40
2023-04-19T08:20:38.261Z,76.00
2023-04-19T08:23:18.078Z,70.20
2023-04-19T08:25:48.380Z,72.50
2023-04-19T08:28:15.504Z,74.70
2023-04-19T08:30:42.479Z,74.70
2023-04-19T08:33:09.605Z,74.10
2023-04-19T08:35:38.770Z,74.90
2023-04-19T08:38:05.721Z,71.80
2023-04-19T08:40:32.985Z,70.30
2023-04-19T08:43:06.830Z,73.10
2023-04-19T08:45:34.591Z,70.30
2023-04-19T08:48:04.080Z,70.90
2023-04-19T08:50:36.003Z,66.80
2023-04-19T08:55:59.047Z,67.50
2023-04-19T08:58:45.780Z,69.90
2023-04-19T09:01:31.026Z,71.90
2023-04-19T09:04:10.255Z,71.00
2023-04-19T09:06:48.715Z,68.70
2023-04-19T09:12:00.836Z,67.30
2023-04-19T09:14:29.395Z,72.10
2023-04-19T09:17:17.572Z,69.20
2023-04-19T09:19:49.914Z,69.50
2023-04-19T09:22:18.000Z,68.50
2023-04-19T09:25:24.006Z,63.00
2023-04-19T09:27:35.324Z,64.60
2023-04-19T09:30:05.577Z,62.20
2023-04-19T09:32:48.173Z,62.20
2023-04-19T09:35:15.458Z,62.10
2023-04-19T09:40:25.718Z,58.30
2023-04-19T09:48:09.821Z,64.70
2023-04-19T09:50:58.581Z,66.60
2023-04-19T09:53:34.011Z,63.00
2023-04-19T09:56:03.369Z,58.50
2023-04-19T09:58:42.454Z,63.00
2023-04-19T10:01:18.946Z,59.90
2023-04-19T10:03:51.003Z,59.60
2023-04-19T10:08:53.522Z,57.90
2023-04-19T10:11:22.894Z,57.30
2023-04-19T10:13:57.181Z,58.30
2023-04-19T10:16:24.928Z,57.40
2023-04-19T10:18:53.187Z,58.80
2023-04-19T10:21:21.303Z,58.90
2023-04-19T10:23:49.038Z,60.40
2023-04-19T10:26:16.183Z,57.40
2023-04-19T10:28:43.158Z,58.10
2023-04-19T10:31:13.763Z,59.40
2023-04-19T10:33:42.186Z,60.70
2023-04-19T10:36:11.741Z,60.50
2023-04-19T10:38:55.759Z,60.10
2023-04-19T10:46:59.494Z,59.60
2023-04-19T10:49:29.384Z,59.40
2023-04-19T10:54:42.282Z,56.80
2023-04-19T10:57:11.464Z,53.70
2023-04-19T10:59:40.604Z,55.70
2023-04-19T11:02:23.238Z,54.90
2023-04-19T11:04:53.535Z,51.40
2023-04-19T11:12:54.599Z,53.30
2023-04-19T11:15:25.201Z,50.70
2023-04-19T11:18:08.840Z,55.50
2023-04-19T11:20:42.554Z,55.40
2023-04-19T11:28:46.617Z,54.00
2023-04-19T11:31:13.598Z,57.10
2023-04-19T11:33:40.575Z,57.40
2023-04-19T11:41:42.966Z,57.40
2023-04-19T11:44:22.694Z,54.30
2023-04-19T11:49:46.151Z,54.30
2023-04-19T11:52:21.370Z,58.00
2023-04-19T11:54:48.620Z,56.60
2023-04-19T11:57:15.556Z,52.10
2023-04-19T12:00:05.578Z,52.70
2023-04-19T12:05:24.416Z,53.20
2023-04-19T12:08:08.431Z,54.90
2023-04-19T12:10:36.318Z,50.70
2023-04-19T12:13:18.009Z,51.20
2023-04-19T12:18:51.325Z,55.40
2023-04-19T12:21:30.852Z,52.20
2023-04-19T12:29:42.398Z,50.50
2023-04-19T12:32:10.947Z,50.90
2023-04-19T12:34:37.931Z,50.30
2023-04-19T12:37:04.899Z,53.00
2023-04-19T12:39:31.935Z,52.00
2023-04-19T12:41:58.898Z,52.00
2023-04-19T12:44:25.991Z,53.50
2023-04-19T12:46:57.198Z,50.40
2023-04-19T12:49:24.409Z,50.20
2023-04-19T12:51:51.376Z,48.80
2023-04-19T12:54:18.406Z,47.40
2023-04-19T12:56:45.266Z,51.60
2023-04-19T12:59:12.188Z,49.50
2023-04-19T13:04:23.987Z,50.80
2023-04-19T13:06:51.256Z,51.10
2023-04-19T13:17:38.037Z,52.10
2023-04-19T13:20:06.515Z,52.60
2023-04-19T13:22:33.598Z,53.30
2023-04-19T13:25:00.610Z,52.40
2023-04-19T13:27:27.969Z,53.80
2023-04-19T13:29:56.389Z,54.80
2023-04-19T13:32:23.738Z,54.20
2023-04-19T13:34:50.652Z,55.40
2023-04-19T13:37:17.608Z,55.30
2023-04-19T13:39:44.528Z,53.40
2023-04-19T13:42:12.393Z,55.40
2023-04-19T13:44:39.294Z,54.50
2023-04-19T13:47:06.622Z,55.60
2023-04-19T13:49:33.514Z,55.70
2023-04-19T13:52:00.389Z,56.00
2023-04-19T13:54:27.383Z,55.80
2023-04-19T13:56:54.265Z,55.40
2023-04-19T13:59:21.408Z,54.80
2023-04-19T14:01:48.356Z,53.80
2023-04-19T14:04:15.897Z,54.10
2023-04-19T14:06:43.427Z,53.90
2023-04-19T14:09:10.339Z,54.30
2023-04-19T14:11:38.385Z,54.20
2023-04-19T14:14:05.317Z,54.10
2023-04-19T14:16:32.214Z,54.80
2023-04-19T14:18:59.677Z,54.30
2023-04-19T14:21:27.697Z,53.00
2023-04-19T14:23:55.214Z,52.60
2023-04-19T14:26:22.078Z,54.80
2023-04-19T14:28:48.947Z,54.20
2023-04-19T14:31:15.911Z,53.70
2023-04-19T14:33:42.877Z,53.20
2023-04-19T14:36:09.870Z,53.30
2023-04-19T14:38:36.706Z,54.30
2023-04-19T14:41:03.587Z,50.90
2023-04-19T14:43:30.802Z,51.40
2023-04-19T14:45:57.670Z,52.90
2023-04-19T14:48:25.130Z,52.90
2023-04-19T14:50:51.961Z,53.90
2023-04-19T14:53:18.847Z,53.60
2023-04-19T14:55:45.716Z,54.10
2023-04-19T14:58:12.652Z,52.50
2023-04-19T15:00:39.569Z,55.20
2023-04-19T15:03:06.700Z,54.10
2023-04-19T15:05:36.456Z,54.10
2023-04-19T15:08:03.541Z,52.50
2023-04-19T15:10:30.567Z,54.00
2023-04-19T15:12:58.057Z,52.60
2023-04-19T15:15:24.958Z,51.70
2023-04-19T15:17:51.868Z,52.20
2023-04-19T15:20:18.818Z,52.40
2023-04-19T15:22:45.736Z,52.40
2023-04-19T15:25:12.696Z,52.70
2023-04-19T15:27:39.515Z,53.30
2023-04-19T15:30:07.593Z,52.70
2023-04-19T15:32:36.685Z,52.60
2023-04-19T15:35:04.246Z,52.60
2023-04-19T15:37:31.120Z,52.50
2023-04-19T15:39:57.967Z,52.00
2023-04-19T15:42:24.957Z,51.10
2023-04-19T15:44:51.828Z,52.40
2023-04-19T15:47:18.761Z,51.60
2023-04-19T15:49:47.331Z,52.90
2023-04-19T15:52:14.285Z,51.80
2023-04-19T15:54:41.199Z,51.30
2023-04-19T15:57:08.133Z,51.40
2023-04-19T15:59:35.165Z,51.70
2023-04-19T16:02:02.313Z,51.80
2023-04-19T16:04:31.250Z,53.40
2023-04-19T16:06:59.184Z,53.60
2023-04-19T16:09:26.423Z,53.60
2023-04-19T16:11:53.328Z,53.50
2023-04-19T16:14:20.282Z,54.20
2023-04-19T16:16:48.161Z,54.20
2023-04-19T16:19:15.430Z,55.40
2023-04-19T16:21:42.548Z,54.40
2023-04-19T16:24:09.478Z,52.90
2023-04-19T16:26:36.416Z,53.10
2023-04-19T16:29:03.486Z,52.30
2023-04-19T16:31:30.782Z,52.80
2023-04-19T16:33:57.732Z,53.60
2023-04-19T16:36:24.664Z,53.00
2023-04-19T16:38:51.760Z,52.70
2023-04-19T16:41:18.658Z,52.70
2023-04-19T16:43:45.655Z,53.70
2023-04-19T16:46:12.585Z,53.00
2023-04-19T16:48:39.479Z,52.90
2023-04-19T16:51:06.478Z,54.70
2023-04-19T16:53:33.335Z,52.30
2023-04-19T16:56:00.423Z,51.80
2023-04-19T16:58:27.429Z,50.70
2023-04-19T17:00:58.520Z,50.50
2023-04-19T17:03:25.843Z,51.40
2023-04-19T17:05:52.830Z,52.30
2023-04-19T17:08:21.445Z,52.10
2023-04-19T17:10:48.810Z,52.40
2023-04-19T17:13:15.812Z,51.10
2023-04-19T17:15:42.822Z,53.10
2023-04-19T17:18:09.805Z,51.40
2023-04-19T17:20:36.826Z,51.90
2023-04-19T17:23:03.837Z,52.70
2023-04-19T17:25:30.955Z,52.90
2023-04-19T17:27:58.029Z,52.70
2023-04-19T17:30:25.038Z,52.90
2023-04-19T17:32:52.040Z,52.60
2023-04-19T17:35:19.139Z,53.10
2023-04-19T17:37:46.115Z,53.50
2023-04-19T17:40:13.194Z,53.70
2023-04-19T17:42:40.030Z,53.30
2023-04-19T17:45:11.070Z,52.60
2023-04-19T17:47:39.444Z,53.50
2023-04-19T17:50:13.064Z,52.70
2023-04-19T17:52:40.225Z,53.20
2023-04-19T17:55:08.024Z,53.20
2023-04-19T17:57:35.399Z,53.40
2023-04-19T18:00:06.648Z,53.80
2023-04-19T18:02:34.746Z,54.00
2023-04-19T18:05:02.194Z,54.40
2023-04-19T18:07:29.414Z,54.60
2023-04-19T18:09:56.361Z,54.80
2023-04-19T18:12:23.447Z,55.30
2023-04-19T18:14:50.339Z,56.60
2023-04-19T18:17:17.249Z,57.30
2023-04-19T18:19:44.213Z,57.80
2023-04-19T18:22:11.283Z,58.10
2023-04-19T18:24:40.804Z,58.50
2023-04-19T18:27:07.797Z,58.80
2023-04-19T18:29:34.848Z,58.80
2023-04-19T18:32:01.738Z,58.60
2023-04-19T18:34:28.734Z,59.20
2023-04-19T18:37:01.014Z,59.70
2023-04-19T18:39:28.800Z,60.20
2023-04-19T18:41:57.692Z,59.80
2023-04-19T18:44:49.417Z,60.80
2023-04-19T18:47:12.379Z,60.70
2023-04-19T18:49:39.259Z,61.00
2023-04-19T18:52:06.354Z,61.10
2023-04-19T18:54:33.232Z,61.80
2023-04-19T18:59:31.360Z,63.20
2023-04-19T19:01:58.417Z,63.00
2023-04-19T19:04:46.811Z,62.60
2023-04-19T19:07:33.097Z,62.70
2023-04-19T19:10:01.547Z,62.60
2023-04-19T19:12:29.391Z,63.70
2023-04-19T19:14:56.318Z,63.20
2023-04-19T19:17:24.554Z,63.60
2023-04-19T19:19:51.596Z,63.60
2023-04-19T19:22:27.541Z,65.10
2023-04-19T19:24:55.696Z,65.70
2023-04-19T19:27:22.736Z,64.80
2023-04-19T19:29:49.680Z,65.00
2023-04-19T19:32:16.698Z,66.30
2023-04-19T19:34:54.677Z,66.30
2023-04-19T19:37:23.383Z,67.90
2023-04-19T19:39:51.964Z,67.50
2023-04-19T19:42:19.784Z,67.00
2023-04-19T19:44:46.811Z,67.10
2023-04-19T19:47:15.328Z,67.90
2023-04-19T19:50:05.718Z,67.80
2023-04-19T19:52:32.096Z,68.70
2023-04-19T19:55:00.181Z,68.60
2023-04-19T20:00:13.972Z,69.60
2023-04-19T20:02:55.076Z,71.40
2023-04-19T20:05:24.187Z,70.30
2023-04-19T20:10:21.438Z,70.20
2023-04-19T20:12:48.355Z,70.50
2023-04-19T20:15:15.371Z,72.00
2023-04-19T20:17:43.743Z,71.30
2023-04-19T20:20:11.481Z,72.90
2023-04-19T20:22:38.658Z,72.50
2023-04-19T20:25:06.632Z,71.90
2023-04-19T20:27:33.796Z,72.00
2023-04-19T20:30:00.959Z,72.50
2023-04-19T20:32:28.064Z,73.10
2023-04-19T20:34:54.958Z,72.80
2023-04-19T20:37:22.529Z,73.20
2023-04-19T20:39:49.450Z,73.60
2023-04-19T20:42:16.867Z,73.60
2023-04-19T20:44:44.427Z,73.60
2023-04-19T20:47:13.228Z,73.90
2023-04-19T20:49:40.877Z,74.00
2023-04-19T20:52:07.822Z,74.20
2023-04-19T20:54:36.524Z,74.60
2023-04-19T20:57:04.602Z,74.60
2023-04-19T20:59:31.674Z,75.30
2023-04-19T21:02:00.069Z,75.40
2023-04-19T21:04:27.393Z,76.60
2023-04-19T21:06:54.396Z,76.00
2023-04-19T21:09:21.482Z,76.20
2023-04-19T21:11:48.490Z,78.00
2023-04-19T21:14:15.430Z,77.80
2023-04-19T21:16:42.252Z,76.80
2023-04-19T21:19:09.085Z,77.30
2023-04-19T21:21:35.985Z,77.30
2023-04-19T21:24:02.876Z,77.10
2023-04-19T21:26:29.795Z,76.60
2023-04-19T21:28:56.612Z,76.60
2023-04-19T21:31:23.540Z,76.60
2023-04-19T21:33:50.501Z,77.40
2023-04-19T21:36:17.412Z,77.10
2023-04-19T21:38:44.440Z,76.80
2023-04-19T21:41:11.382Z,76.70
2023-04-19T21:43:38.383Z,76.70
2023-04-19T21:46:05.467Z,77.00
2023-04-19T21:48:32.895Z,77.30
2023-04-19T21:51:01.427Z,78.00
2023-04-19T21:53:28.302Z,77.70
2023-04-19T21:55:55.219Z,78.00
2023-04-19T21:58:22.354Z,78.10
2023-04-19T22:00:49.382Z,77.90
2023-04-19T22:03:16.542Z,77.90
2023-04-19T22:05:46.548Z,78.80
2023-04-19T22:08:13.505Z,78.60
2023-04-19T22:10:41.119Z,78.60
2023-04-19T22:13:08.725Z,78.70
2023-04-19T22:15:37.342Z,78.60
2023-04-19T22:18:05.102Z,78.60
2023-04-19T22:20:33.758Z,78.80
2023-04-19T22:23:00.935Z,78.80
2023-04-19T22:25:27.915Z,79.00
2023-04-19T22:27:55.211Z,79.40
2023-04-19T22:30:22.087Z,79.70
2023-04-19T22:32:49.017Z,80.30
2023-04-19T22:35:16.074Z,80.60
2023-04-19T22:37:43.039Z,80.10
2023-04-19T22:40:10.939Z,80.10
2023-04-19T22:42:37.918Z,80.50
2023-04-19T22:45:05.664Z,79.90
2023-04-19T22:47:33.110Z,79.80
2023-04-19T22:49:59.993Z,79.80
2023-04-19T22:52:27.767Z,79.80
2023-04-19T22:54:54.759Z,79.70
2023-04-19T22:57:21.610Z,79.70
2023-04-19T22:59:48.959Z,79.70
2023-04-19T23:02:15.875Z,79.90
2023-04-19T23:04:44.766Z,80.00
2023-04-19T23:07:12.032Z,80.90
2023-04-19T23:09:39.339Z,80.80
2023-04-19T23:12:08.228Z,80.80
2023-04-19T23:14:38.680Z,80.40
2023-04-19T23:17:06.128Z,80.30
2023-04-19T23:19:33.154Z,80.00
2023-04-19T23:22:00.038Z,80.00
2023-04-19T23:24:26.955Z,80.40
2023-04-19T23:26:53.812Z,80.60
2023-04-19T23:29:20.652Z,80.90
2023-04-19T23:31:47.534Z,80.60
2023-04-19T23:39:26.835Z,80.00
2023-04-19T23:41:53.830Z,80.00
2023-04-19T23:44:21.465Z,79.80
2023-04-19T23:46:48.486Z,79.40
2023-04-19T23:49:15.549Z,79.60
2023-04-19T23:51:42.821Z,80.10
2023-04-19T23:54:09.671Z,80.50
2023-04-19T23:56:36.559Z,80.60
2023-04-19T23:59:03.430Z,80.40
